createdAt,value
2022-08-17T00:01:45.527Z,34.90
2022-08-17T00:04:19.120Z,37.70
2022-08-17T00:06:49.118Z,37.67
2022-08-17T00:09:18.786Z,37.97
2022-08-17T00:12:35.091Z,37.65
2022-08-17T00:14:34.867Z,36.00
2022-08-17T00:17:03.636Z,35.35
2022-08-17T00:19:32.431Z,35.78
2022-08-17T00:22:32.715Z,35.22
2022-08-17T00:24:47.396Z,35.35
2022-08-17T00:27:14.076Z,33.40
2022-08-17T00:29:41.105Z,32.90
2022-08-17T00:33:14.381Z,33.78
2022-08-17T00:34:54.520Z,33.95
2022-08-17T00:37:21.186Z,32.58
2022-08-17T00:39:47.884Z,32.65
2022-08-17T00:42:18.892Z,30.75
2022-08-17T00:44:45.751Z,30.67
2022-08-17T00:47:12.504Z,29.98
2022-08-17T00:49:39.430Z,30.70
2022-08-17T00:52:15.218Z,30.70
2022-08-17T00:54:44.651Z,27.88
2022-08-17T00:57:21.276Z,29.88
2022-08-17T01:00:02.250Z,30.15
2022-08-17T01:02:34.985Z,29.92
2022-08-17T01:05:14.061Z,27.83
2022-08-17T01:07:42.772Z,27.75
2022-08-17T01:10:59.175Z,27.08
2022-08-17T01:13:02.423Z,24.85
2022-08-17T01:15:35.981Z,25.02
2022-08-17T01:18:04.478Z,25.33
2022-08-17T01:20:32.397Z,26.48
2022-08-17T01:23:16.431Z,26.63
2022-08-17T01:25:53.585Z,25.15
2022-08-17T01:28:36.385Z,25.20
2022-08-17T01:31:09.038Z,25.42
2022-08-17T01:33:36.530Z,25.15
2022-08-17T01:36:04.954Z,23.95
2022-08-17T01:38:31.922Z,24.35
2022-08-17T01:41:03.395Z,24.65
2022-08-17T01:46:03.014Z,23.65
2022-08-17T01:48:38.214Z,23.20
2022-08-17T01:51:07.530Z,25.20
2022-08-17T01:53:42.416Z,29.80
2022-08-17T01:56:12.119Z,29.27
2022-08-17T01:58:40.165Z,33.15
2022-08-17T02:01:08.459Z,29.95
2022-08-17T02:03:36.724Z,31.35
2022-08-17T02:06:05.372Z,30.75
2022-08-17T02:08:39.025Z,35.03
2022-08-17T02:11:11.955Z,31.85
2022-08-17T02:13:39.145Z,31.35
2022-08-17T02:16:06.168Z,28.58
2022-08-17T02:18:33.106Z,28.63
2022-08-17T02:21:00.172Z,30.65
2022-08-17T02:23:30.281Z,28.65
2022-08-17T02:25:59.458Z,30.15
2022-08-17T02:28:28.282Z,30.45
2022-08-17T02:31:01.517Z,31.63
2022-08-17T02:33:43.022Z,34.17
2022-08-17T02:36:11.743Z,36.97
2022-08-17T02:38:39.743Z,35.70
2022-08-17T02:41:06.699Z,36.53
2022-08-17T02:43:33.730Z,32.17
2022-08-17T02:46:00.566Z,33.35
2022-08-17T02:48:30.955Z,32.88
2022-08-17T02:50:59.677Z,32.67
2022-08-17T02:53:26.689Z,35.00
2022-08-17T02:55:53.554Z,33.13
2022-08-17T02:58:34.417Z,31.55
2022-08-17T03:01:07.119Z,32.60
2022-08-17T03:06:01.580Z,33.00
2022-08-17T03:08:28.625Z,29.13
2022-08-17T03:10:55.600Z,27.95
2022-08-17T03:13:22.583Z,29.65
2022-08-17T03:15:50.515Z,30.77
2022-08-17T03:18:25.786Z,29.67
2022-08-17T03:20:58.446Z,28.60
2022-08-17T03:23:27.264Z,27.23
2022-08-17T03:25:55.279Z,29.73
2022-08-17T03:28:23.446Z,31.05
2022-08-17T03:30:51.237Z,28.65
2022-08-17T03:33:18.942Z,30.52
2022-08-17T03:35:46.272Z,28.35
2022-08-17T03:38:15.823Z,29.00
2022-08-17T03:40:56.594Z,27.25
2022-08-17T03:43:25.804Z,25.20
2022-08-17T03:46:27.673Z,27.45
2022-08-17T03:49:16.217Z,26.75
2022-08-17T03:52:01.812Z,26.70
2022-08-17T03:54:47.314Z,27.20
2022-08-17T03:57:14.309Z,26.42
2022-08-17T03:59:41.574Z,28.42
2022-08-17T04:02:12.992Z,28.80
2022-08-17T04:07:07.269Z,27.30
2022-08-17T04:09:34.515Z,28.65
2022-08-17T04:12:02.498Z,28.40
2022-08-17T04:14:36.345Z,28.75
2022-08-17T04:17:17.473Z,28.80
2022-08-17T04:19:45.199Z,28.08
2022-08-17T04:22:11.885Z,28.58
2022-08-17T04:24:58.881Z,27.27
2022-08-17T04:27:25.658Z,27.50
2022-08-17T04:29:55.474Z,27.10
2022-08-17T04:33:04.943Z,28.17
2022-08-17T04:35:09.860Z,26.83
2022-08-17T04:37:36.588Z,25.80
2022-08-17T04:40:22.727Z,26.50
2022-08-17T04:43:13.216Z,27.77
2022-08-17T04:45:55.469Z,27.73
2022-08-17T04:48:27.960Z,29.30
2022-08-17T04:51:04.836Z,29.10
2022-08-17T04:53:31.507Z,29.70
2022-08-17T04:55:59.034Z,29.67
2022-08-17T04:58:25.726Z,29.85
2022-08-17T05:00:52.942Z,29.88
2022-08-17T05:03:19.694Z,28.15
2022-08-17T05:05:49.456Z,29.88
2022-08-17T05:08:18.566Z,27.52
2022-08-17T05:10:45.803Z,26.10
2022-08-17T05:13:22.386Z,26.27
2022-08-17T05:15:52.707Z,25.95
2022-08-17T05:18:19.439Z,22.88
2022-08-17T05:20:46.684Z,22.38
2022-08-17T05:23:16.553Z,21.60
2022-08-17T05:25:48.806Z,20.42
2022-08-17T05:28:18.862Z,18.05
2022-08-17T05:30:50.816Z,16.58
2022-08-17T05:33:21.189Z,15.90
2022-08-17T05:35:49.995Z,15.00
2022-08-17T05:38:20.654Z,16.38
2022-08-17T05:40:48.201Z,15.27
2022-08-17T05:43:19.156Z,12.27
2022-08-17T05:46:16.760Z,11.77
2022-08-17T05:48:49.376Z,11.10
2022-08-17T05:51:39.646Z,11.57
2022-08-17T05:54:31.085Z,9.35
2022-08-17T05:57:31.649Z,10.93
2022-08-17T05:59:58.276Z,9.40
2022-08-17T06:02:47.971Z,9.10
2022-08-17T06:05:51.493Z,7.78
2022-08-17T06:08:25.835Z,8.13
2022-08-17T06:11:24.702Z,6.75
2022-08-17T06:14:18.724Z,7.40
2022-08-17T06:16:49.912Z,8.13
2022-08-17T06:19:33.546Z,7.78
2022-08-17T06:22:02.704Z,7.00
2022-08-17T06:24:35.974Z,6.28
2022-08-17T06:27:24.412Z,7.82
2022-08-17T06:30:00.914Z,8.10
2022-08-17T06:32:29.340Z,7.82
2022-08-17T06:34:58.316Z,7.43
2022-08-17T06:38:02.272Z,8.05
2022-08-17T06:40:55.919Z,7.95
2022-08-17T06:43:48.059Z,8.35
2022-08-17T06:46:36.723Z,7.32
2022-08-17T06:49:15.168Z,7.65
2022-08-17T06:51:48.667Z,7.57
2022-08-17T06:54:21.846Z,8.43
2022-08-17T06:57:01.398Z,7.40
2022-08-17T07:00:05.959Z,8.32
2022-08-17T07:03:10.541Z,9.07
2022-08-17T07:05:48.336Z,8.10
2022-08-17T07:08:26.399Z,9.60
2022-08-17T07:11:00.508Z,9.38
2022-08-17T07:13:38.061Z,9.57
2022-08-17T07:16:41.971Z,8.82
2022-08-17T07:19:10.789Z,8.05
2022-08-17T07:21:40.965Z,8.45
2022-08-17T07:24:26.204Z,9.30
2022-08-17T07:27:07.958Z,9.13
2022-08-17T07:29:49.405Z,9.35
2022-08-17T07:35:23.177Z,9.82
2022-08-17T07:38:25.858Z,9.52
2022-08-17T07:41:05.124Z,9.13
2022-08-17T07:43:40.744Z,9.88
2022-08-17T07:46:30.012Z,10.55
2022-08-17T07:49:18.381Z,11.43
2022-08-17T07:51:47.818Z,12.13
2022-08-17T07:54:22.459Z,11.63
2022-08-17T07:57:13.237Z,13.43
2022-08-17T07:59:59.378Z,13.40
2022-08-17T08:02:40.939Z,11.27
2022-08-17T08:05:46.695Z,13.18
2022-08-17T08:08:43.090Z,10.30
2022-08-17T08:11:15.186Z,11.25
2022-08-17T08:13:45.650Z,13.13
2022-08-17T08:16:24.470Z,12.40
2022-08-17T08:18:57.167Z,12.40
2022-08-17T08:21:29.060Z,13.35
2022-08-17T08:24:09.694Z,13.52
2022-08-17T08:27:08.078Z,11.50
2022-08-17T08:29:59.092Z,14.52
2022-08-17T08:32:47.921Z,15.70
2022-08-17T08:35:42.065Z,16.30
2022-08-17T08:38:34.542Z,15.63
2022-08-17T08:41:16.368Z,15.85
2022-08-17T08:44:09.809Z,16.08
2022-08-17T08:47:14.367Z,16.35
2022-08-17T08:50:05.337Z,15.05
2022-08-17T08:52:44.083Z,12.82
2022-08-17T08:55:13.490Z,12.48
2022-08-17T08:57:51.674Z,12.38
2022-08-17T09:00:24.958Z,12.32
2022-08-17T09:03:20.019Z,12.15
2022-08-17T09:06:06.770Z,13.02
2022-08-17T09:09:15.714Z,13.00
2022-08-17T09:12:05.020Z,11.95
2022-08-17T09:14:45.114Z,11.40
2022-08-17T09:17:24.436Z,10.63
2022-08-17T09:20:05.187Z,9.85
2022-08-17T09:22:42.801Z,9.00
2022-08-17T09:25:17.929Z,8.98
2022-08-17T09:27:53.835Z,7.70
2022-08-17T09:30:23.725Z,8.45
2022-08-17T09:33:04.621Z,7.85
2022-08-17T09:35:39.677Z,8.83
2022-08-17T09:38:29.136Z,9.10
2022-08-17T09:41:19.916Z,8.63
2022-08-17T09:43:56.610Z,7.20
2022-08-17T09:46:43.559Z,9.13
2022-08-17T09:49:26.455Z,8.90
2022-08-17T09:52:08.629Z,11.02
2022-08-17T09:54:40.937Z,10.82
2022-08-17T09:57:30.765Z,10.77
2022-08-17T10:00:00.949Z,12.85
2022-08-17T10:02:41.314Z,13.57
2022-08-17T10:05:21.690Z,12.55
2022-08-17T10:08:01.902Z,12.05
2022-08-17T10:10:56.653Z,10.20
2022-08-17T10:14:02.086Z,13.32
2022-08-17T10:17:02.769Z,11.07
2022-08-17T10:19:35.692Z,11.50
2022-08-17T10:22:43.199Z,10.80
2022-08-17T10:25:53.649Z,11.57
2022-08-17T10:28:27.375Z,10.60
2022-08-17T10:31:30.747Z,11.80
2022-08-17T10:34:29.385Z,11.13
2022-08-17T10:37:21.646Z,11.35
2022-08-17T10:39:59.342Z,10.13
2022-08-17T10:42:33.282Z,11.98
2022-08-17T10:45:28.137Z,13.02
2022-08-17T10:48:21.940Z,13.05
2022-08-17T10:51:01.772Z,12.20
2022-08-17T10:53:43.531Z,12.05
2022-08-17T10:56:13.091Z,15.73
2022-08-17T10:59:00.295Z,16.42
2022-08-17T11:01:33.010Z,14.77
2022-08-17T11:04:25.185Z,13.20
2022-08-17T11:07:19.603Z,15.13
2022-08-17T11:10:05.089Z,16.02
2022-08-17T11:12:52.103Z,16.30
2022-08-17T11:15:47.383Z,12.07
2022-08-17T11:18:37.023Z,12.52
2022-08-17T11:21:15.863Z,14.48
2022-08-17T11:24:17.346Z,15.85
2022-08-17T11:27:00.790Z,13.35
2022-08-17T11:29:53.587Z,14.70
2022-08-17T11:32:33.666Z,15.20
2022-08-17T11:35:21.102Z,16.10
2022-08-17T11:38:02.936Z,16.23
2022-08-17T11:41:02.143Z,16.17
2022-08-17T11:43:43.353Z,15.85
2022-08-17T11:46:21.958Z,16.67
2022-08-17T11:49:38.047Z,16.70
2022-08-17T11:52:05.194Z,16.73
2022-08-17T11:54:37.915Z,18.67
2022-08-17T11:57:26.440Z,17.00
2022-08-17T11:59:59.201Z,19.27
2022-08-17T12:02:31.743Z,18.90
2022-08-17T12:05:05.193Z,18.90
2022-08-17T12:07:54.327Z,18.52
2022-08-17T12:10:32.286Z,18.95
2022-08-17T12:13:05.857Z,19.17
2022-08-17T12:15:42.333Z,20.58
2022-08-17T12:18:18.076Z,20.77
2022-08-17T12:20:56.534Z,19.58
2022-08-17T12:23:39.352Z,22.08
2022-08-17T12:26:20.632Z,22.15
2022-08-17T12:28:50.161Z,21.80
2022-08-17T12:31:34.627Z,22.40
2022-08-17T12:34:05.248Z,23.13
2022-08-17T12:36:33.489Z,22.17
2022-08-17T12:39:12.955Z,23.35
2022-08-17T12:41:44.900Z,21.70
2022-08-17T12:44:12.156Z,23.73
2022-08-17T12:46:53.176Z,15.77
2022-08-17T12:49:29.894Z,18.35
2022-08-17T12:52:19.695Z,22.23
2022-08-17T12:55:00.345Z,23.48
2022-08-17T12:57:31.207Z,23.23
2022-08-17T13:00:17.499Z,21.08
2022-08-17T13:02:46.976Z,24.83
2022-08-17T13:05:35.947Z,19.83
2022-08-17T13:08:17.228Z,22.85
2022-08-17T13:10:53.382Z,23.05
2022-08-17T13:13:23.454Z,21.42
2022-08-17T13:16:09.393Z,21.48
2022-08-17T13:18:48.959Z,21.75
2022-08-17T13:21:30.340Z,20.80
2022-08-17T13:24:03.501Z,18.90
2022-08-17T13:26:37.728Z,16.40
2022-08-17T13:29:16.595Z,20.40
2022-08-17T13:31:52.249Z,22.05
2022-08-17T13:34:26.656Z,19.42
2022-08-17T13:37:32.598Z,21.35
2022-08-17T13:40:08.168Z,22.02
2022-08-17T13:42:50.363Z,18.67
2022-08-17T13:45:35.984Z,19.40
2022-08-17T13:48:21.820Z,19.58
2022-08-17T13:50:54.661Z,20.98
2022-08-17T13:53:47.522Z,20.30
2022-08-17T13:56:37.385Z,19.85
2022-08-17T13:59:12.233Z,20.67
2022-08-17T14:01:43.929Z,18.55
2022-08-17T14:04:16.659Z,19.85
2022-08-17T14:06:54.762Z,15.40
2022-08-17T14:09:28.238Z,19.98
2022-08-17T14:11:56.834Z,15.15
2022-08-17T14:14:24.471Z,20.85
2022-08-17T14:16:52.591Z,20.17
2022-08-17T14:19:21.837Z,17.70
2022-08-17T14:21:49.142Z,19.30
2022-08-17T14:24:21.579Z,18.35
2022-08-17T14:26:49.258Z,20.08
2022-08-17T14:29:15.992Z,19.75
2022-08-17T14:31:42.806Z,18.10
2022-08-17T14:34:20.366Z,21.75
2022-08-17T14:36:48.675Z,18.55
2022-08-17T14:39:16.633Z,11.93
2022-08-17T14:41:43.682Z,13.48
2022-08-17T14:44:12.417Z,15.73
2022-08-17T14:46:44.129Z,20.13
2022-08-17T14:49:12.729Z,18.85
2022-08-17T14:51:43.922Z,21.30
2022-08-17T14:54:29.415Z,17.15
2022-08-17T14:57:22.797Z,21.63
2022-08-17T14:59:47.179Z,21.75
2022-08-17T15:02:14.986Z,19.52
2022-08-17T15:04:45.499Z,22.65
2022-08-17T15:07:12.503Z,17.60
2022-08-17T15:09:39.186Z,18.50
2022-08-17T15:12:06.659Z,17.38
2022-08-17T15:14:35.377Z,23.17
2022-08-17T15:17:03.642Z,20.83
2022-08-17T15:19:30.413Z,20.33
2022-08-17T15:21:57.325Z,21.52
2022-08-17T15:24:24.013Z,24.08
2022-08-17T15:26:51.447Z,24.38
2022-08-17T15:29:18.354Z,21.63
2022-08-17T15:31:45.032Z,21.38
2022-08-17T15:34:11.899Z,23.58
2022-08-17T15:36:38.920Z,24.15
2022-08-17T15:39:19.203Z,22.33
2022-08-17T15:41:47.258Z,24.47
2022-08-17T15:44:32.618Z,25.40
2022-08-17T15:47:01.934Z,21.95
2022-08-17T15:49:28.602Z,23.38
2022-08-17T15:51:55.522Z,23.55
2022-08-17T15:54:23.325Z,24.98
2022-08-17T15:56:50.557Z,23.75
2022-08-17T15:59:17.271Z,23.90
2022-08-17T16:03:14.515Z,23.00
2022-08-17T16:04:31.756Z,22.20
2022-08-17T16:06:59.660Z,25.45
2022-08-17T16:09:26.882Z,25.23
2022-08-17T16:11:55.734Z,23.77
2022-08-17T16:14:24.222Z,25.63
2022-08-17T16:16:51.618Z,21.00
2022-08-17T16:19:18.278Z,25.33
2022-08-17T16:21:44.966Z,24.38
2022-08-17T16:24:13.728Z,27.77
2022-08-17T16:26:42.224Z,18.98
2022-08-17T16:29:09.443Z,21.02
2022-08-17T16:31:37.658Z,23.25
2022-08-17T16:34:17.136Z,17.20
2022-08-17T16:36:55.128Z,21.42
2022-08-17T16:39:25.424Z,18.55
2022-08-17T16:41:52.183Z,17.63
2022-08-17T16:44:20.847Z,17.77
2022-08-17T16:46:49.040Z,20.27
2022-08-17T16:49:27.617Z,21.38
2022-08-17T16:52:04.280Z,24.40
2022-08-17T16:54:31.008Z,23.67
2022-08-17T16:56:57.692Z,26.10
2022-08-17T16:59:31.281Z,23.67
2022-08-17T17:02:11.283Z,23.52
2022-08-17T17:04:45.353Z,24.70
2022-08-17T17:07:49.576Z,20.40
2022-08-17T17:10:24.058Z,23.27
2022-08-17T17:13:02.835Z,25.40
2022-08-17T17:15:53.478Z,24.83
2022-08-17T17:18:26.378Z,22.73
2022-08-17T17:20:57.024Z,23.77
2022-08-17T17:23:36.186Z,22.63
2022-08-17T17:26:19.020Z,23.08
2022-08-17T17:29:00.758Z,25.83
2022-08-17T17:31:38.068Z,25.13
2022-08-17T17:34:07.613Z,29.38
2022-08-17T17:36:53.910Z,28.63
2022-08-17T17:39:20.567Z,29.45
2022-08-17T17:41:58.985Z,28.50
2022-08-17T17:44:30.385Z,31.50
2022-08-17T17:49:30.149Z,26.98
2022-08-17T17:52:12.360Z,33.78
2022-08-17T17:55:01.994Z,32.22
2022-08-17T17:57:40.447Z,32.58
2022-08-17T18:00:14.001Z,30.70
2022-08-17T18:03:06.842Z,29.45
2022-08-17T18:05:46.605Z,25.30
2022-08-17T18:08:16.555Z,24.60
2022-08-17T18:10:54.738Z,32.55
2022-08-17T18:13:52.019Z,27.52
2022-08-17T18:16:19.199Z,32.13
2022-08-17T18:18:52.136Z,33.10
2022-08-17T18:21:24.246Z,33.35
2022-08-17T18:24:02.029Z,33.55
2022-08-17T18:26:45.074Z,31.80
2022-08-17T18:29:31.494Z,34.40
2022-08-17T18:32:23.320Z,34.38
2022-08-17T18:35:15.886Z,32.90
2022-08-17T18:37:48.745Z,30.55
2022-08-17T18:40:19.011Z,33.25
2022-08-17T18:42:56.641Z,32.45
2022-08-17T18:45:41.482Z,34.28
2022-08-17T18:48:26.896Z,35.75
2022-08-17T18:51:15.583Z,33.35
2022-08-17T18:53:42.251Z,38.33
2022-08-17T18:56:23.052Z,36.75
2022-08-17T18:59:00.766Z,36.33
2022-08-17T19:01:41.930Z,35.53
2022-08-17T19:04:40.214Z,26.52
2022-08-17T19:07:30.141Z,27.60
2022-08-17T19:10:06.818Z,36.08
2022-08-17T19:12:38.044Z,23.35
2022-08-17T19:15:07.764Z,23.30
2022-08-17T19:17:46.743Z,24.60
2022-08-17T19:20:41.603Z,24.58
2022-08-17T19:23:40.790Z,27.70
2022-08-17T19:26:53.337Z,25.55
2022-08-17T19:29:36.895Z,28.50
2022-08-17T19:32:06.387Z,30.05
2022-08-17T19:34:35.599Z,25.75
2022-08-17T19:37:06.820Z,26.98
2022-08-17T19:39:55.247Z,24.70
2022-08-17T19:42:37.151Z,26.75
2022-08-17T19:45:29.249Z,26.65
2022-08-17T19:48:12.331Z,25.35
2022-08-17T19:50:54.938Z,24.95
2022-08-17T19:54:04.379Z,18.08
2022-08-17T19:56:42.054Z,20.00
2022-08-17T19:59:35.772Z,18.35
2022-08-17T20:02:18.929Z,25.80
2022-08-17T20:04:49.147Z,25.98
2022-08-17T20:07:22.017Z,23.67
2022-08-17T20:10:08.143Z,26.40
2022-08-17T20:12:38.734Z,28.00
2022-08-17T20:15:08.731Z,29.30
2022-08-17T20:17:41.396Z,27.20
2022-08-17T20:20:29.864Z,28.13
2022-08-17T20:23:14.991Z,26.30
2022-08-17T20:25:57.317Z,27.10
2022-08-17T20:28:27.901Z,29.00
2022-08-17T20:30:55.126Z,24.67
2022-08-17T20:33:33.076Z,23.85
2022-08-17T20:36:14.326Z,26.65
2022-08-17T20:38:41.042Z,25.83
2022-08-17T20:41:12.622Z,26.08
2022-08-17T20:43:39.288Z,25.05
2022-08-17T20:46:51.411Z,26.33
2022-08-17T20:49:27.444Z,25.83
2022-08-17T20:52:11.088Z,25.30
2022-08-17T20:54:50.525Z,23.73
2022-08-17T20:57:32.463Z,23.42
2022-08-17T21:00:05.260Z,25.15
2022-08-17T21:02:32.799Z,23.27
2022-08-17T21:05:06.896Z,24.42
2022-08-17T21:07:43.721Z,23.85
2022-08-17T21:10:17.940Z,22.98
2022-08-17T21:13:08.212Z,23.20
2022-08-17T21:15:56.982Z,23.55
2022-08-17T21:18:52.493Z,24.08
2022-08-17T21:21:44.725Z,23.75
2022-08-17T21:24:31.240Z,23.00
2022-08-17T21:27:23.643Z,21.83
2022-08-17T21:30:02.350Z,23.10
2022-08-17T21:32:40.480Z,24.15
2022-08-17T21:35:22.655Z,23.80
2022-08-17T21:37:53.234Z,22.88
2022-08-17T21:40:28.978Z,23.07
2022-08-17T21:43:23.329Z,25.33
2022-08-17T21:46:04.279Z,21.92
2022-08-17T21:48:42.001Z,22.20
2022-08-17T21:51:18.868Z,21.42
2022-08-17T21:53:51.979Z,21.48
2022-08-17T21:56:26.116Z,21.80
2022-08-17T21:59:13.002Z,21.20
2022-08-17T22:01:42.759Z,21.33
2022-08-17T22:04:12.408Z,20.98
2022-08-17T22:06:43.075Z,22.15
2022-08-17T22:09:40.287Z,20.45
2022-08-17T22:12:19.312Z,19.67
2022-08-17T22:14:57.802Z,21.55
2022-08-17T22:17:30.415Z,20.08
2022-08-17T22:20:14.349Z,20.77
2022-08-17T22:23:08.710Z,21.52
2022-08-17T22:25:40.562Z,19.75
2022-08-17T22:28:10.405Z,22.00
2022-08-17T22:30:59.696Z,19.88
2022-08-17T22:33:41.751Z,19.95
2022-08-17T22:36:31.455Z,19.60
2022-08-17T22:39:20.620Z,19.63
2022-08-17T22:41:48.124Z,18.77
2022-08-17T22:44:25.829Z,19.65
2022-08-17T22:47:11.181Z,20.00
2022-08-17T22:50:02.307Z,20.35
2022-08-17T22:53:02.542Z,20.92
2022-08-17T22:55:52.122Z,20.25
2022-08-17T22:58:40.499Z,20.88
2022-08-17T23:01:36.361Z,22.13
2022-08-17T23:04:06.952Z,20.48
2022-08-17T23:06:35.891Z,21.03
2022-08-17T23:09:05.732Z,20.55
2022-08-17T23:11:48.593Z,22.70
2022-08-17T23:14:19.030Z,21.00
2022-08-17T23:16:46.604Z,21.33
2022-08-17T23:19:15.796Z,19.90
2022-08-17T23:21:44.829Z,20.48
2022-08-17T23:24:19.394Z,20.90
2022-08-17T23:26:46.236Z,20.90
2022-08-17T23:29:13.182Z,20.67
2022-08-17T23:31:40.534Z,19.67
2022-08-17T23:34:12.723Z,21.27
2022-08-17T23:36:39.475Z,19.67
2022-08-17T23:39:07.274Z,19.67
2022-08-17T23:41:38.527Z,20.92
2022-08-17T23:44:06.423Z,19.95
2022-08-17T23:46:34.476Z,20.40
2022-08-17T23:49:01.225Z,20.42
2022-08-17T23:51:35.713Z,19.63
2022-08-17T23:54:11.650Z,20.15
2022-08-17T23:56:47.341Z,19.13
2022-08-17T23:59:15.668Z,19.45
